Arcadia, South Carolina
Current Conditions -  °F | °C
As of 4:35 AM on Saturday 20 Dec 2014 (Local Time) from KSPA Reporting Station
Drizzle Drizzle  
Wind Chill: 42°   Ceiling: 4400
Heat Index: 45°   Visibility: 10mi
Dew Point: 37°   Wind: 5mph
Humidity: 76%   Direction: 10°N
Pressure: 30.16"   Gusts: NA
Location:  34.96°N, 81.99°W
Report Text: KSPA 200935Z AUTO 01004KT 10SM DZ BKN044 OVC050 07/03 A3016 RMK AO2
Loading
Personal Weather Stations






























Interactive Weather Map New forecast layout! Learn more

10-Day Weather Forecast

Advertisements
Track Severe Weather on mobile